Time;durP1;ratioP1;P1;durP2;ratioP2;P2;SDS_P1;SDS_P2;PMS_P1;PMS_P2;Temp;Humidity;BMP_temperature;BMP_pressure;BME280_temperature;BME280_humidity;BME280_pressure;Samples;Min_cycle;Max_cycle;Signal;HPM_P1;HPM_P2
2022/06/04 00:01:06;;;;;;;;;12.33;12.33;;;;;21.98;73.29;99755.13;6316203;20;3529435;-56
2022/06/04 00:03:34;;;;;;;;;15.00;13.33;;;;;22.06;73.37;99757.88;6287187;20;2483651;-48
2022/06/04 00:06:03;;;;;;;;;12.00;12.00;;;;;22.27;72.05;99757.47;6318253;20;2803448;-57
2022/06/04 00:08:33;;;;;;;;;13.33;13.33;;;;;22.09;74.30;99746.66;6316843;20;2483651;-58
2022/06/04 00:16:36;;;;;;;;;18.67;14.67;;;;;21.60;81.89;99751.09;6285934;20;3544037;-46
2022/06/04 00:19:04;;;;;;;;;15.67;13.00;;;;;21.26;83.47;99743.69;6286741;20;3525285;-47
2022/06/04 00:21:33;;;;;;;;;14.00;12.33;;;;;21.27;84.02;99746.28;6284132;20;3529505;-46
2022/06/04 00:24:02;;;;;;;;;12.00;12.00;;;;;21.22;86.27;99743.19;6315194;20;3522099;-49
2022/06/04 00:26:30;;;;;;;;;12.00;12.00;;;;;20.86;88.22;99733.38;6284739;20;3524621;-56
2022/06/04 00:28:59;;;;;;;;;17.00;15.00;;;;;20.86;89.60;99738.84;6286650;20;3557767;-48
2022/06/04 00:31:28;;;;;;;;;14.00;14.00;;;;;20.76;90.52;99720.69;6286928;20;3516954;-53
2022/06/04 00:33:56;;;;;;;;;17.00;14.33;;;;;20.67;91.80;99720.75;6281984;20;3528406;-58
2022/06/04 00:36:25;;;;;;;;;15.00;13.67;;;;;20.85;92.16;99728.91;6313942;20;3527584;-56
2022/06/04 00:38:53;;;;;;;;;16.33;14.00;;;;;20.57;94.56;99721.72;6282646;20;2491975;-53
2022/06/04 00:41:59;;;;;;;;;19.33;15.00;;;;;20.32;97.32;99723.34;6314402;20;2483588;-55
2022/06/04 00:44:30;;;;;;;;;19.00;16.00;;;;;20.39;100.00;99718.97;6315170;20;2822148;-55
2022/06/04 00:47:25;;;;;;;;;19.50;18.00;;;;;20.42;98.65;99716.97;6284594;20;2835689;-51
2022/06/04 00:49:53;;;;;;;;;14.00;14.00;;;;;20.70;96.69;99715.00;6286027;20;2483609;-48
2022/06/04 00:52:25;;;;;;;;;19.00;16.00;;;;;20.57;96.87;99715.44;6314382;20;2826415;-50
2022/06/04 00:54:57;;;;;;;;;16.67;14.67;;;;;20.32;100.00;99720.59;6281012;20;3537750;-50
2022/06/04 00:58:35;;;;;;;;;16.00;15.00;;;;;20.27;100.00;99722.94;6284030;20;2485826;-52
2022/06/04 01:01:57;;;;;;;;;17.50;16.00;;;;;20.02;100.00;99727.31;6279110;20;2829863;-51
2022/06/04 01:05:13;;;;;;;;;17.00;17.00;;;;;20.26;100.00;99732.16;6277967;20;2835796;-48
2022/06/04 01:08:03;;;;;;;;;16.50;16.50;;;;;20.08;100.00;99726.69;6284012;20;2487768;-47
2022/06/04 01:11:00;;;;;;;;;19.00;16.50;;;;;19.87;100.00;99735.16;6282814;20;2832704;-48
2022/06/04 01:13:53;;;;;;;;;17.50;17.50;;;;;20.40;100.00;99711.66;6283950;20;2837894;-52
2022/06/04 01:16:33;;;;;;;;;18.00;16.33;;;;;20.43;100.00;99703.16;6282706;20;3552331;-58
2022/06/04 01:19:52;;;;;;;;;20.50;20.50;;;;;20.11;100.00;99692.81;6282519;20;2831688;-55
2022/06/04 01:22:56;;;;;;;;;18.00;18.00;;;;;20.51;100.00;99699.63;6287131;20;3571265;-54
2022/06/04 01:25:48;;;;;;;;;21.67;20.00;;;;;20.55;100.00;99684.72;6287612;20;3572169;-46
2022/06/04 01:28:17;;;;;;;;;22.00;21.00;;;;;20.06;100.00;99678.78;6283414;20;3577343;-52
2022/06/04 01:30:52;;;;;;;;;16.00;16.00;;;;;20.20;100.00;99678.25;6278196;20;2826587;-47
2022/06/04 01:33:47;;;;;;;;;21.00;18.00;;;;;20.03;100.00;99669.06;6280830;20;2837124;-47
2022/06/04 01:36:41;;;;;;;;;19.50;16.50;;;;;20.08;100.00;99663.13;6283697;20;2829465;-52
2022/06/04 01:39:26;;;;;;;;;22.67;18.33;;;;;19.79;100.00;99661.50;6281684;20;3565852;-50
2022/06/04 01:42:02;;;;;;;;;21.00;21.00;;;;;19.61;100.00;99653.25;6279799;20;2836871;-54
2022/06/04 01:44:37;;;;;;;;;20.50;19.50;;;;;19.81;100.00;99643.13;6280239;20;2830535;-52
2022/06/04 01:47:06;;;;;;;;;20.00;18.00;;;;;19.68;100.00;99640.78;6282217;20;2833626;-46
2022/06/04 01:49:46;;;;;;;;;25.00;21.00;;;;;19.48;100.00;99642.75;6283436;20;2834754;-59
2022/06/04 01:52:39;;;;;;;;;20.67;20.67;;;;;19.74;100.00;99642.03;6284981;20;3579386;-52
2022/06/04 01:55:36;;;;;;;;;20.00;20.00;;;;;19.56;100.00;99641.09;6281048;20;3612728;-58
2022/06/04 01:58:16;;;;;;;;;20.50;19.50;;;;;19.95;100.00;99642.56;6282164;20;2836813;-59
2022/06/04 02:01:07;;;;;;;;;19.67;19.67;;;;;19.41;100.00;99629.91;6280063;20;2836915;-59
2022/06/04 02:03:54;;;;;;;;;17.00;16.00;;;;;20.02;100.00;99621.00;6312242;20;2824272;-56
2022/06/04 02:06:35;;;;;;;;;23.00;20.00;;;;;19.98;100.00;99626.94;6279163;20;2832708;-58
2022/06/04 02:09:15;;;;;;;;;21.33;20.33;;;;;19.91;100.00;99637.59;6281994;20;2838811;-45
2022/06/04 02:11:53;;;;;;;;;19.67;19.67;;;;;19.91;100.00;99627.56;6314252;20;3577371;-48
2022/06/04 02:14:21;;;;;;;;;19.00;18.00;;;;;20.19;100.00;99613.81;6281922;20;3550322;-57
2022/06/04 02:17:04;;;;;;;;;20.67;20.67;;;;;19.79;100.00;99622.50;6315980;20;3569501;-49
2022/06/04 02:19:33;;;;;;;;;20.33;20.00;;;;;19.94;100.00;99631.84;6284121;20;3576333;-49
2022/06/04 02:22:03;;;;;;;;;20.00;19.33;;;;;19.89;100.00;99624.13;6287151;20;3578521;-51
2022/06/04 02:24:32;;;;;;;;;18.00;18.00;;;;;19.87;100.00;99630.75;6280988;20;2829444;-47
2022/06/04 02:27:01;;;;;;;;;19.33;19.33;;;;;19.99;100.00;99637.69;6287192;20;3565881;-46
2022/06/04 02:29:30;;;;;;;;;21.67;20.00;;;;;20.02;100.00;99639.25;6280853;20;3583564;-47
2022/06/04 02:32:22;;;;;;;;;21.00;19.00;;;;;20.05;100.00;99639.78;6282416;20;2830466;-47
2022/06/04 02:35:14;;;;;;;;;22.67;20.00;;;;;20.08;100.00;99644.06;6278716;20;2840899;-58
2022/06/04 02:38:04;;;;;;;;;20.00;20.00;;;;;20.20;100.00;99644.69;6312818;20;3566242;-50
2022/06/04 02:40:47;;;;;;;;;21.50;19.00;;;;;20.01;100.00;99641.13;6276738;20;2839867;-59
2022/06/04 02:44:03;;;;;;;;;18.00;17.00;;;;;20.03;100.00;99646.41;6283782;20;2775318;-49
2022/06/04 02:46:47;;;;;;;;;23.00;21.00;;;;;19.97;100.00;99655.19;6283931;20;3556523;-51
2022/06/04 02:49:29;;;;;;;;;20.00;19.00;;;;;19.94;100.00;99664.56;6278329;20;2814906;-59
2022/06/04 02:51:59;;;;;;;;;19.00;19.00;;;;;19.92;100.00;99682.91;6279672;20;2826341;-59
2022/06/04 02:54:54;;;;;;;;;21.67;19.67;;;;;20.12;100.00;99662.69;6281763;20;3568031;-50
2022/06/04 02:57:27;;;;;;;;;21.00;21.00;;;;;19.95;100.00;99668.97;6280884;20;3550313;-58
2022/06/04 02:59:58;;;;;;;;;21.33;21.33;;;;;19.90;100.00;99679.47;6311307;20;3576438;-59
2022/06/04 03:02:29;;;;;;;;;20.67;19.67;;;;;19.85;100.00;99682.69;6282267;20;3577348;-59
2022/06/04 03:05:16;;;;;;;;;18.00;18.00;;;;;19.75;100.00;99676.44;6277228;20;2828455;-53
2022/06/04 03:07:51;;;;;;;;;26.33;21.67;;;;;19.98;100.00;99665.09;6282612;20;2843092;-59
2022/06/04 03:10:30;;;;;;;;;19.33;19.00;;;;;20.18;100.00;99663.91;6315420;20;3581647;-56
2022/06/04 03:12:59;;;;;;;;;20.00;19.50;;;;;20.15;100.00;99672.41;6278471;20;2835682;-54
2022/06/04 03:15:28;;;;;;;;;19.00;18.33;;;;;20.08;100.00;99664.00;6283559;20;3571096;-56
2022/06/04 03:17:56;;;;;;;;;22.00;20.00;;;;;19.98;100.00;99657.75;6278583;20;2833634;-60
2022/06/04 03:20:27;;;;;;;;;20.00;18.67;;;;;19.98;100.00;99662.34;6281602;20;3581606;-59
2022/06/04 03:22:56;;;;;;;;;22.33;19.67;;;;;19.57;100.00;99661.91;6279060;20;3577389;-49
2022/06/04 03:25:25;;;;;;;;;20.33;20.33;;;;;19.30;100.00;99666.38;6284108;20;3568018;-52
2022/06/04 03:27:53;;;;;;;;;19.67;19.67;;;;;19.51;100.00;99658.78;6283551;20;3577329;-49
2022/06/04 03:30:28;;;;;;;;;17.67;17.00;;;;;19.78;100.00;99654.34;6280836;20;3570033;-52
2022/06/04 03:32:57;;;;;;;;;19.00;19.00;;;;;19.75;100.00;99665.56;6311170;20;2826428;-52
2022/06/04 03:35:26;;;;;;;;;19.50;19.00;;;;;19.71;100.00;99675.03;6278312;20;2838839;-48
2022/06/04 03:37:54;;;;;;;;;17.00;15.00;;;;;19.66;100.00;99674.59;6281216;20;3546076;-52
2022/06/04 03:40:23;;;;;;;;;18.00;18.00;;;;;19.70;100.00;99678.78;6313562;20;3562961;-52
2022/06/04 03:42:52;;;;;;;;;16.00;16.00;;;;;19.78;100.00;99702.53;6279876;20;2838150;-49
2022/06/04 03:45:20;;;;;;;;;18.00;15.00;;;;;19.87;100.00;99707.03;6279791;20;2492024;-48
2022/06/04 03:47:49;;;;;;;;;16.50;15.50;;;;;19.81;100.00;99699.50;6280651;20;3498209;-59
2022/06/04 03:50:18;;;;;;;;;15.33;14.00;;;;;19.80;100.00;99695.03;6309229;20;3547274;-59
2022/06/04 03:52:48;;;;;;;;;16.00;16.00;;;;;20.04;100.00;99691.75;6281059;20;2827419;-47
2022/06/04 03:55:19;;;;;;;;;18.00;16.50;;;;;19.90;100.00;99685.78;6279870;20;2828425;-50
2022/06/04 03:57:52;;;;;;;;;19.00;17.00;;;;;19.80;100.00;99705.94;6279688;20;2837883;-48
2022/06/04 04:00:37;;;;;;;;;16.50;16.50;;;;;19.79;100.00;99715.97;6276236;20;2829545;-60
2022/06/04 04:03:17;;;;;;;;;21.50;19.00;;;;;19.79;100.00;99721.44;6281804;20;2844072;-55
2022/06/04 04:05:52;;;;;;;;;19.00;15.00;;;;;19.77;100.00;99707.09;6280393;20;2809626;-56
2022/06/04 04:08:25;;;;;;;;;19.00;18.00;;;;;19.79;100.00;99690.59;6311567;20;2837785;-52
2022/06/04 04:10:53;;;;;;;;;16.50;15.50;;;;;19.83;100.00;99684.72;6279637;20;2489846;-59
2022/06/04 04:13:21;;;;;;;;;13.00;13.00;;;;;19.32;100.00;99677.94;6280935;20;3528365;-45
2022/06/04 04:15:51;;;;;;;;;14.67;14.33;;;;;19.37;100.00;99691.09;6277377;20;3525327;-48
2022/06/04 04:18:19;;;;;;;;;13.00;11.67;;;;;19.52;100.00;99684.16;6309143;20;3512751;-58
2022/06/04 04:20:48;;;;;;;;;11.67;10.33;;;;;19.57;100.00;99686.44;6308938;20;3510677;-50
2022/06/04 04:23:16;;;;;;;;;12.00;10.00;;;;;19.56;100.00;99687.41;6314001;20;2794116;-47
2022/06/04 04:25:44;;;;;;;;;13.00;13.00;;;;;19.38;100.00;99695.53;6285316;20;2813793;-49
2022/06/04 04:28:12;;;;;;;;;12.00;10.50;;;;;19.37;100.00;99694.69;6313332;20;2784653;-47
2022/06/04 04:30:42;;;;;;;;;8.80;6.00;;;;;19.25;100.00;99701.34;6311008;20;2739907;-46
2022/06/04 04:33:10;;;;;;;;;10.00;10.00;;;;;19.38;100.00;99696.41;6320688;20;2779425;-46
2022/06/04 04:35:38;;;;;;;;;12.50;10.50;;;;;19.48;100.00;99672.72;6289518;20;2792029;-49
2022/06/04 04:38:06;;;;;;;;;11.00;11.00;;;;;19.46;100.00;99682.03;6287087;20;2788806;-48
2022/06/04 04:40:35;;;;;;;;;10.00;9.00;;;;;19.51;100.00;99683.28;6285183;20;2771083;-48
2022/06/04 04:43:03;;;;;;;;;9.50;9.50;;;;;19.26;100.00;99682.13;6322522;20;2764862;-50
2022/06/04 04:45:32;;;;;;;;;8.33;8.33;;;;;19.25;100.00;99685.00;6287403;20;2754448;-45
2022/06/04 04:48:00;;;;;;;;;10.00;7.67;;;;;19.27;100.00;99693.84;6315531;20;2765875;-46
2022/06/04 04:50:37;;;;;;;;;8.67;7.67;;;;;19.13;100.00;99686.19;6314303;20;2748295;-45
2022/06/04 04:53:11;;;;;;;;;8.50;8.00;;;;;19.19;100.00;99693.75;6321257;20;2754453;-45
2022/06/04 04:55:45;;;;;;;;;10.20;8.60;;;;;19.02;100.00;99690.81;6313499;20;2772115;-48
2022/06/04 04:58:13;;;;;;;;;12.00;8.00;;;;;19.10;100.00;99691.94;6291702;20;2766951;-47
2022/06/04 05:00:44;;;;;;;;;8.00;7.00;;;;;19.06;100.00;99697.69;6287373;20;2734659;-47
2022/06/04 05:03:13;;;;;;;;;15.20;10.20;;;;;19.04;100.00;99701.56;6310776;20;2806519;-49
2022/06/04 05:05:43;;;;;;;;;9.00;6.60;;;;;19.13;100.00;99697.09;6312958;20;2740899;-47
2022/06/04 05:08:13;;;;;;;;;13.80;9.40;;;;;19.05;100.00;99695.97;6340320;20;2779443;-48
2022/06/04 05:10:43;;;;;;;;;10.00;8.20;;;;;18.78;100.00;99688.59;6309328;20;2777415;-45
2022/06/04 05:13:11;;;;;;;;;9.50;9.50;;;;;19.10;100.00;99700.97;6291240;20;2765961;-47
2022/06/04 05:15:41;;;;;;;;;11.60;10.80;;;;;18.92;100.00;99706.31;6308721;20;2790899;-48
2022/06/04 05:18:11;;;;;;;;;12.40;9.60;;;;;18.97;100.00;99698.56;6308894;20;2788813;-54
2022/06/04 05:20:42;;;;;;;;;9.33;9.33;;;;;19.00;100.00;99694.69;6282756;20;2764867;-49
2022/06/04 05:23:11;;;;;;;;;8.67;7.33;;;;;18.95;100.00;99695.13;6316381;20;2735894;-46
2022/06/04 05:25:39;;;;;;;;;10.00;9.00;;;;;18.84;100.00;99687.16;6314939;20;2769035;-49
2022/06/04 05:28:08;;;;;;;;;8.00;8.00;;;;;18.93;100.00;99691.72;6314924;20;2748328;-46
2022/06/04 05:30:36;;;;;;;;;10.50;8.00;;;;;18.88;100.00;99702.19;6314753;20;2765893;-46
2022/06/04 05:33:04;;;;;;;;;9.00;9.00;;;;;18.76;100.00;99697.91;6288925;20;2756510;-49
2022/06/04 05:35:32;;;;;;;;;12.33;9.00;;;;;18.91;100.00;99699.16;6283800;20;2770068;-50
2022/06/04 05:38:02;;;;;;;;;11.20;9.00;;;;;18.79;100.00;99705.78;6340205;20;2769038;-51
2022/06/04 05:40:29;;;;;;;;;8.50;7.50;;;;;18.74;100.00;99727.94;6280031;20;2734628;-49
2022/06/04 05:42:58;;;;;;;;;10.00;8.67;;;;;18.75;100.00;99739.72;6283094;20;2767003;-55
2022/06/04 05:45:26;;;;;;;;;10.33;9.33;;;;;18.84;100.00;99730.69;6313885;20;2765866;-46
2022/06/04 05:47:55;;;;;;;;;10.00;9.00;;;;;18.89;100.00;99728.38;6312277;20;2760657;-50
2022/06/04 05:50:24;;;;;;;;;11.33;11.00;;;;;18.96;100.00;99717.78;6312965;20;2792004;-55
2022/06/04 05:52:52;;;;;;;;;12.33;10.67;;;;;19.06;100.00;99700.41;6313778;20;2783612;-56
2022/06/04 05:55:22;;;;;;;;;7.00;7.00;;;;;18.92;100.00;99695.44;6315761;20;2742962;-54
2022/06/04 05:57:49;;;;;;;;;12.00;8.00;;;;;18.88;100.00;99693.13;6290360;20;2764821;-52
2022/06/04 06:00:17;;;;;;;;;14.00;10.00;;;;;18.91;100.00;99696.44;6289318;20;2791027;-51
2022/06/04 06:02:46;;;;;;;;;9.00;9.00;;;;;18.78;100.00;99693.19;6283699;20;2744100;-51
2022/06/04 06:05:20;;;;;;;;;8.33;8.33;;;;;19.02;100.00;99696.25;6315688;20;2750314;-48
2022/06/04 06:07:50;;;;;;;;;10.40;9.40;;;;;18.67;100.00;99696.03;6339552;20;2771125;-51
2022/06/04 06:10:20;;;;;;;;;8.00;8.00;;;;;18.78;100.00;99694.03;6284954;20;2750248;-49
2022/06/04 06:12:50;;;;;;;;;10.60;10.20;;;;;18.94;100.00;99687.97;6309972;20;2791924;-51
2022/06/04 06:15:18;;;;;;;;;8.00;8.00;;;;;18.68;100.00;99692.31;6289732;20;2727909;-54
2022/06/04 06:17:46;;;;;;;;;10.00;7.67;;;;;18.58;100.00;99678.72;6284500;20;2746078;-48
2022/06/04 06:20:17;;;;;;;;;8.00;7.00;;;;;18.74;100.00;99669.97;6341189;20;2744068;-57
2022/06/04 06:22:47;;;;;;;;;6.80;6.00;;;;;18.70;100.00;99679.44;6341541;20;2742082;-53
2022/06/04 06:25:17;;;;;;;;;9.40;7.40;;;;;18.65;100.00;99685.31;6342330;20;2751453;-50
2022/06/04 06:27:45;;;;;;;;;7.50;7.50;;;;;18.82;100.00;99678.28;6317036;20;2740920;-58
2022/06/04 06:30:14;;;;;;;;;6.50;6.50;;;;;19.00;100.00;99671.06;6285324;20;2740973;-58
2022/06/04 06:32:44;;;;;;;;;4.80;4.80;;;;;19.17;100.00;99671.25;6314416;20;2749204;-52
2022/06/04 06:35:13;;;;;;;;;7.60;6.80;;;;;19.02;100.00;99674.50;6342181;20;2732582;-50
2022/06/04 06:37:43;;;;;;;;;7.60;5.60;;;;;19.04;100.00;99667.03;6339573;20;2739096;-50
2022/06/04 06:40:13;;;;;;;;;4.80;4.80;;;;;18.99;100.00;99673.94;6338996;20;2748199;-47
2022/06/04 06:42:42;;;;;;;;;9.00;7.00;;;;;19.03;100.00;99675.34;6309535;20;2728393;-47
2022/06/04 06:45:12;;;;;;;;;10.00;8.00;;;;;19.05;100.00;99684.22;6339165;20;2745145;-59
2022/06/04 06:47:43;;;;;;;;;6.33;6.00;;;;;18.82;100.00;99690.00;6318879;20;2739875;-50
2022/06/04 06:50:16;;;;;;;;;7.80;7.20;;;;;18.80;100.00;99718.34;6337551;20;2742996;-52
2022/06/04 06:52:45;;;;;;;;;7.40;7.40;;;;;18.57;100.00;99734.97;6337898;20;2745633;-50
2022/06/04 06:55:13;;;;;;;;;7.50;7.50;;;;;18.61;100.00;99730.94;6314645;20;2734676;-48
2022/06/04 06:57:41;;;;;;;;;7.00;7.00;;;;;19.01;100.00;99674.63;6286928;20;2731534;-50
2022/06/04 07:00:12;;;;;;;;;7.80;7.20;;;;;19.00;100.00;99648.44;6310263;20;2739866;-47
2022/06/04 07:02:40;;;;;;;;;7.33;5.00;;;;;19.12;100.00;99651.84;6310057;20;2756578;-49
2022/06/04 07:05:11;;;;;;;;;12.60;9.80;;;;;19.47;100.00;99653.78;6336876;20;2799207;-50
2022/06/04 07:07:41;;;;;;;;;10.00;8.80;;;;;19.59;100.00;99654.41;6306488;20;2743540;-59
2022/06/04 07:10:14;;;;;;;;;8.00;8.00;;;;;19.72;100.00;99660.38;6306350;20;2746140;-48
2022/06/04 07:12:44;;;;;;;;;8.80;8.80;;;;;19.81;100.00;99659.47;6308155;20;2752344;-50
2022/06/04 07:15:14;;;;;;;;;13.00;8.40;;;;;19.87;100.00;99672.47;6305626;20;2780481;-58
2022/06/04 07:17:43;;;;;;;;;9.20;9.20;;;;;20.01;100.00;99670.22;6306606;20;2743028;-59
2022/06/04 07:20:12;;;;;;;;;8.67;8.67;;;;;19.87;100.00;99664.28;6280404;20;2747170;-52
2022/06/04 07:22:41;;;;;;;;;11.67;7.33;;;;;19.78;100.00;99659.78;6312592;20;2758773;-49
2022/06/04 07:25:09;;;;;;;;;9.00;8.00;;;;;20.05;100.00;99658.00;6319469;20;2751368;-47
2022/06/04 07:27:39;;;;;;;;;10.00;8.00;;;;;20.50;100.00;99654.28;6311177;20;2759835;-58
2022/06/04 07:30:09;;;;;;;;;9.33;9.00;;;;;20.47;100.00;99632.78;6279247;20;2750297;-50
2022/06/04 07:32:41;;;;;;;;;10.80;9.00;;;;;20.69;100.00;99634.16;6325351;20;2768147;-47
2022/06/04 07:35:09;;;;;;;;;10.33;10.00;;;;;21.13;100.00;99640.38;6281141;20;2794057;-48
2022/06/04 07:37:38;;;;;;;;;11.00;10.67;;;;;21.07;100.00;99641.03;6310042;20;2789478;-50
2022/06/04 07:40:08;;;;;;;;;8.67;8.67;;;;;21.03;100.00;99639.63;6306291;20;2756499;-50
2022/06/04 07:42:37;;;;;;;;;13.67;12.67;;;;;21.20;100.00;99635.97;6310212;20;3511707;-58
2022/06/04 07:45:07;;;;;;;;;13.67;12.00;;;;;21.16;100.00;99634.59;6312024;20;3529402;-58
2022/06/04 07:47:36;;;;;;;;;11.33;11.00;;;;;21.29;100.00;99636.00;6281110;20;3521071;-49
2022/06/04 07:50:05;;;;;;;;;12.33;12.33;;;;;21.73;100.00;99646.78;6315500;20;2791915;-50
2022/06/04 07:52:34;;;;;;;;;16.00;16.00;;;;;21.37;99.55;99641.50;6308310;20;2485709;-47
2022/06/04 07:55:06;;;;;;;;;15.00;14.00;;;;;21.24;100.00;99648.25;6312127;20;2483589;-52
2022/06/04 07:57:36;;;;;;;;;16.00;15.00;;;;;21.21;100.00;99645.88;6308728;20;2536703;-51
2022/06/04 08:00:08;;;;;;;;;21.50;18.50;;;;;21.16;100.00;99650.13;6309513;20;2835705;-55
2022/06/04 08:02:38;;;;;;;;;20.00;16.00;;;;;21.54;100.00;99659.69;6280252;20;2835805;-53
2022/06/04 08:05:07;;;;;;;;;17.00;16.00;;;;;21.56;100.00;99651.31;6283993;20;2833582;-52
2022/06/04 08:07:37;;;;;;;;;17.50;17.50;;;;;21.32;100.00;99658.38;6284520;20;2838794;-50
2022/06/04 08:10:08;;;;;;;;;18.00;18.00;;;;;21.02;98.60;99659.78;6283959;20;2841931;-52
2022/06/04 08:12:59;;;;;;;;;19.50;18.00;;;;;20.55;100.00;99661.00;6282215;20;2829566;-50
2022/06/04 08:15:28;;;;;;;;;20.33;19.00;;;;;21.24;100.00;99661.06;6289113;20;3565970;-56
2022/06/04 08:17:56;;;;;;;;;19.00;19.00;;;;;21.39;100.00;99655.88;6282187;20;3583583;-53
2022/06/04 08:20:26;;;;;;;;;19.00;18.00;;;;;21.27;100.00;99663.47;6282831;20;2831708;-52
2022/06/04 08:23:02;;;;;;;;;21.67;20.00;;;;;21.31;100.00;99656.69;6316219;20;2834763;-50
2022/06/04 08:25:31;;;;;;;;;22.33;21.00;;;;;21.27;100.00;99656.16;6318926;20;3572126;-48
2022/06/04 08:28:00;;;;;;;;;23.00;23.00;;;;;21.24;100.00;99653.72;6285779;20;2841012;-48
2022/06/04 08:30:33;;;;;;;;;17.67;16.00;;;;;21.40;98.96;99657.59;6313646;20;2486511;-50
2022/06/04 08:33:02;;;;;;;;;15.33;15.33;;;;;21.43;100.00;99651.78;6317103;20;3547235;-51
2022/06/04 08:35:32;;;;;;;;;21.33;21.00;;;;;21.53;100.00;99657.97;6315459;20;3576479;-51
2022/06/04 08:38:06;;;;;;;;;19.00;19.00;;;;;21.83;98.37;99653.81;6316611;20;3566950;-50
2022/06/04 08:40:56;;;;;;;;;20.00;20.00;;;;;21.79;96.89;99649.69;6282531;20;3583637;-52
2022/06/04 08:44:15;;;;;;;;;20.00;18.33;;;;;22.26;96.62;99650.97;6287595;20;3573282;-51
2022/06/04 08:46:55;;;;;;;;;23.67;22.33;;;;;22.43;96.08;99654.53;6285401;20;3583559;-54
2022/06/04 08:49:34;;;;;;;;;24.00;22.00;;;;;22.55;93.25;99654.03;6284029;20;3585662;-48
2022/06/04 08:52:23;;;;;;;;;26.00;24.67;;;;;22.09;97.44;99653.66;6282273;20;3585678;-58
2022/06/04 08:58:27;;;;;;;;;27.67;24.00;;;;;22.07;96.79;99650.25;6283663;20;3589844;-48
2022/06/04 09:01:01;;;;;;;;;30.75;24.25;;;;;22.16;98.03;99642.03;6282760;20;3607854;-49
2022/06/04 09:04:05;;;;;;;;;26.00;24.67;;;;;22.22;97.52;99642.25;6315855;20;3602372;-54
2022/06/04 09:07:16;;;;;;;;;29.33;25.67;;;;;22.86;93.05;99650.56;6281839;20;3600240;-56
2022/06/04 09:09:56;;;;;;;;;21.33;21.33;;;;;22.98;90.11;99648.34;6284213;20;3581592;-50
2022/06/04 09:12:41;;;;;;;;;24.33;22.00;;;;;23.25;89.36;99649.81;6286463;20;3587754;-51
2022/06/04 09:15:37;;;;;;;;;22.67;22.67;;;;;22.88;89.57;99658.59;6281984;20;3585753;-51
2022/06/04 09:18:17;;;;;;;;;23.67;22.00;;;;;22.84;88.40;99646.28;6280275;20;3577373;-56
2022/06/04 09:20:52;;;;;;;;;20.33;20.33;;;;;23.38;88.07;99644.59;6284029;20;3575362;-51
2022/06/04 09:23:36;;;;;;;;;24.00;23.00;;;;;23.82;87.84;99644.03;6286197;20;3572094;-57
2022/06/04 09:26:13;;;;;;;;;23.67;20.33;;;;;23.51;88.90;99654.13;6288541;20;3567080;-49
2022/06/04 09:30:12;;;;;;;;;22.00;19.67;;;;;23.29;87.10;99651.13;6285423;20;3581577;-52
2022/06/04 09:33:08;;;;;;;;;18.67;18.67;;;;;23.96;86.68;99647.03;6276269;20;3557679;-52
2022/06/04 09:35:41;;;;;;;;;19.67;19.67;;;;;24.00;86.21;99653.88;6281388;20;3577310;-48
2022/06/04 09:38:29;;;;;;;;;21.67;21.33;;;;;24.40;85.53;99647.19;6282678;20;3579584;-59
2022/06/04 09:41:18;;;;;;;;;21.00;21.00;;;;;24.40;86.08;99643.59;6284216;20;3578455;-59
2022/06/04 09:44:15;;;;;;;;;20.00;20.00;;;;;23.69;87.72;99649.22;6284480;20;3573154;-53
2022/06/04 09:46:54;;;;;;;;;20.67;20.67;;;;;23.99;85.26;99654.91;6283488;20;3582507;-59
2022/06/04 09:49:40;;;;;;;;;18.33;18.33;;;;;24.23;83.30;99662.97;6311467;20;3573137;-59
2022/06/04 09:52:40;;;;;;;;;23.00;23.00;;;;;24.08;83.83;99659.28;6312012;20;3585718;-58
2022/06/04 09:55:20;;;;;;;;;20.00;18.00;;;;;24.36;84.00;99665.09;6313405;20;3575310;-59
2022/06/04 09:58:15;;;;;;;;;19.00;18.33;;;;;24.13;83.99;99665.09;6285034;20;3565854;-58
2022/06/04 10:01:08;;;;;;;;;21.00;19.67;;;;;24.17;84.70;99660.09;6280459;20;3582521;-47
2022/06/04 10:03:40;;;;;;;;;21.67;21.33;;;;;24.83;82.29;99657.63;6285204;20;3582711;-59
2022/06/04 10:06:17;;;;;;;;;19.67;19.33;;;;;25.45;83.62;99665.56;6288035;20;3583683;-47
2022/06/04 10:11:59;;;;;;;;;18.00;18.00;;;;;25.15;81.98;99664.69;6285838;20;2844159;-59
2022/06/04 10:14:39;;;;;;;;;15.67;14.33;;;;;24.69;79.94;99662.06;6318957;20;2483611;-50
2022/06/04 10:17:31;;;;;;;;;16.00;16.00;;;;;25.00;81.17;99663.84;6313233;20;2827443;-59
2022/06/04 10:20:00;;;;;;;;;15.67;15.67;;;;;24.78;79.41;99668.34;6285002;20;3552369;-59
2022/06/04 10:22:29;;;;;;;;;16.00;15.50;;;;;24.70;80.29;99656.41;6284113;20;2819037;-60
2022/06/04 10:25:03;;;;;;;;;16.00;16.00;;;;;24.84;80.28;99657.47;6284703;20;2827430;-59
2022/06/04 10:28:04;;;;;;;;;16.00;16.00;;;;;24.86;83.91;99657.28;6287543;20;3562797;-49
2022/06/04 10:31:20;;;;;;;;;15.00;15.00;;;;;25.11;79.37;99657.84;6282344;20;2483598;-59
2022/06/04 10:34:02;;;;;;;;;14.67;14.67;;;;;25.41;79.66;99647.75;6320983;20;3522128;-59
2022/06/04 10:37:17;;;;;;;;;17.00;17.00;;;;;25.31;81.51;99655.44;6323240;20;3551280;-59
2022/06/04 10:40:39;;;;;;;;;17.00;17.00;;;;;25.04;80.85;99649.53;6317976;20;3566874;-59
2022/06/04 10:43:54;;;;;;;;;16.33;16.00;;;;;25.11;80.43;99655.97;6284736;20;3567032;-60
2022/06/04 10:46:50;;;;;;;;;15.00;15.00;;;;;25.08;80.50;99659.09;6283727;20;2810788;-55
2022/06/04 10:50:19;;;;;;;;;18.00;17.00;;;;;24.53;83.00;99665.81;6286925;20;2830632;-60
2022/06/04 10:53:13;;;;;;;;;13.00;12.00;;;;;24.54;82.18;99662.06;6286114;20;3517018;-59
2022/06/04 10:55:55;;;;;;;;;16.00;15.00;;;;;24.48;83.28;99662.78;6320116;20;3534799;-49
2022/06/04 10:58:43;;;;;;;;;16.33;15.00;;;;;24.64;82.84;99668.13;6315264;20;3550245;-59
2022/06/04 11:01:43;;;;;;;;;16.00;16.00;;;;;24.66;81.37;99673.44;6282903;20;3561719;-51
2022/06/04 11:04:48;;;;;;;;;14.00;14.00;;;;;24.89;81.52;99676.13;6279737;20;2483593;-51
2022/06/04 11:07:54;;;;;;;;;16.33;16.00;;;;;24.70;81.72;99666.53;6317462;20;3547221;-52
2022/06/04 11:11:04;;;;;;;;;15.33;15.33;;;;;24.97;81.35;99670.56;6313605;20;3542948;-59
2022/06/04 11:13:46;;;;;;;;;19.00;19.00;;;;;24.86;81.37;99671.03;6317295;20;3574224;-58
2022/06/04 11:16:23;;;;;;;;;16.00;15.00;;;;;24.92;82.08;99665.63;6281893;20;2483740;-55
2022/06/04 11:18:58;;;;;;;;;16.67;16.67;;;;;24.65;82.37;99667.09;6316413;20;3561741;-59
2022/06/04 11:22:21;;;;;;;;;19.00;16.00;;;;;25.21;81.19;99674.94;6279526;20;2825455;-56
2022/06/04 11:25:32;;;;;;;;;15.67;15.67;;;;;26.08;78.88;99676.91;6280113;20;3556596;-56
2022/06/04 11:28:12;;;;;;;;;17.33;13.67;;;;;25.79;78.17;99677.81;6283663;20;2483636;-54
2022/06/04 11:31:11;;;;;;;;;16.33;16.33;;;;;25.48;79.39;99670.66;6313338;20;3563801;-50
2022/06/04 11:34:14;;;;;;;;;18.33;17.00;;;;;24.87;82.17;99679.06;6284547;20;3561942;-59
2022/06/04 11:37:06;;;;;;;;;18.00;18.00;;;;;24.88;81.27;99679.91;6284345;20;3562781;-60
2022/06/04 11:39:59;;;;;;;;;17.00;16.00;;;;;24.83;81.98;99677.75;6289774;20;3560623;-59
2022/06/04 11:42:53;;;;;;;;;17.00;17.00;;;;;24.60;83.65;99683.28;6288788;20;3569044;-54
2022/06/04 11:45:44;;;;;;;;;18.00;18.00;;;;;24.01;85.18;99672.03;6285837;20;2839874;-60
2022/06/04 11:48:29;;;;;;;;;15.00;15.00;;;;;24.36;84.08;99675.22;6322832;20;3545016;-61
2022/06/04 11:51:37;;;;;;;;;17.00;17.00;;;;;24.26;84.60;99679.06;6286919;20;3559616;-54
2022/06/04 11:54:58;;;;;;;;;19.33;18.00;;;;;24.68;84.36;99685.09;6291958;20;3562729;-61
2022/06/04 11:57:46;;;;;;;;;21.33;20.00;;;;;24.44;85.77;99689.75;6292715;20;3577299;-61
2022/06/04 12:00:33;;;;;;;;;20.33;18.00;;;;;24.09;85.39;99691.16;6290445;20;3571179;-60
2022/06/04 12:04:03;;;;;;;;;18.67;18.67;;;;;24.11;84.91;99691.84;6288013;20;3569009;-61